Le Sueur, Minnesota
Current Conditions -  °F | °C
As of 3:35 PM on Wednesday 26 Nov 2014 (Local Time) from KMKT Reporting Station
Overcast Overcast  
Wind Chill: 12°   Ceiling: 1000
Heat Index: 25°   Visibility: 9mi
Dew Point: 19°   Wind: 15mph
Humidity: 80%   Direction: 350°N
Pressure: 30.23"   Gusts: NA
Location:  44.46°N, 93.92°W
Report Text: KMKT 262135Z AUTO 35013KT 9SM BKN010 OVC018 M04/M07 A3023 RMK AO1
Loading
Personal Weather Stations






























Interactive Weather Map New forecast layout! Learn more

10-Day Weather Forecast

Advertisements
Track Severe Weather on mobile